createdAt,value
2023-05-23T00:00:22.847Z,97.80
2023-05-23T00:03:11.537Z,98.10
2023-05-23T00:05:38.942Z,98.80
2023-05-23T00:08:06.378Z,99.20
2023-05-23T00:10:33.525Z,99.90
2023-05-23T00:13:00.850Z,99.90
2023-05-23T00:15:27.922Z,99.90
2023-05-23T00:17:55.448Z,99.90
2023-05-23T00:20:22.970Z,99.90
2023-05-23T00:22:50.322Z,99.90
2023-05-23T00:25:17.439Z,99.90
2023-05-23T00:27:44.786Z,99.90
2023-05-23T00:30:12.194Z,99.90
2023-05-23T00:32:39.561Z,99.90
2023-05-23T00:35:07.257Z,99.90
2023-05-23T00:37:35.259Z,99.90
2023-05-23T00:40:02.370Z,99.90
2023-05-23T00:42:29.823Z,99.90
2023-05-23T00:44:57.034Z,99.90
2023-05-23T00:47:24.535Z,99.90
2023-05-23T00:49:51.660Z,99.90
2023-05-23T00:52:19.098Z,99.90
2023-05-23T00:54:46.174Z,99.90
2023-05-23T00:57:13.716Z,99.90
2023-05-23T00:59:41.197Z,99.90
2023-05-23T01:02:08.937Z,99.90
2023-05-23T01:04:37.127Z,99.90
2023-05-23T01:07:04.641Z,99.90
2023-05-23T01:09:32.382Z,99.90
2023-05-23T01:12:02.915Z,99.90
2023-05-23T01:14:53.411Z,99.90
2023-05-23T01:17:32.860Z,99.90
2023-05-23T01:20:09.230Z,99.90
2023-05-23T01:23:02.466Z,99.90
2023-05-23T01:26:00.528Z,99.90
2023-05-23T01:28:36.251Z,99.90
2023-05-23T01:31:05.538Z,99.90
2023-05-23T01:33:33.793Z,99.90
2023-05-23T01:36:05.519Z,99.90
2023-05-23T01:38:33.138Z,99.90
2023-05-23T01:41:00.628Z,99.90
2023-05-23T01:43:28.124Z,99.90
2023-05-23T01:45:57.128Z,99.90
2023-05-23T01:48:26.608Z,99.90
2023-05-23T01:50:54.475Z,99.90
2023-05-23T01:53:23.835Z,99.90
2023-05-23T01:55:52.244Z,99.90
2023-05-23T01:58:22.237Z,99.90
2023-05-23T02:00:49.491Z,99.90
2023-05-23T02:03:17.085Z,99.90
2023-05-23T02:05:44.615Z,99.90
2023-05-23T02:08:12.201Z,99.90
2023-05-23T02:10:39.309Z,99.90
2023-05-23T02:13:06.834Z,99.90
2023-05-23T02:15:33.884Z,99.90
2023-05-23T02:18:03.238Z,99.90
2023-05-23T02:20:31.204Z,99.90
2023-05-23T02:22:58.533Z,99.90
2023-05-23T02:25:25.604Z,99.90
2023-05-23T02:27:53.176Z,99.90
2023-05-23T02:30:20.288Z,99.90
2023-05-23T02:32:50.227Z,99.90
2023-05-23T02:35:17.313Z,99.90
2023-05-23T02:37:44.719Z,99.90
2023-05-23T02:40:12.436Z,99.90
2023-05-23T02:42:39.809Z,99.90
2023-05-23T02:45:08.044Z,99.90
2023-05-23T02:47:36.550Z,99.90
2023-05-23T02:50:03.805Z,99.90
2023-05-23T02:52:32.459Z,99.90
2023-05-23T02:54:59.514Z,99.90
2023-05-23T02:57:27.703Z,99.90
2023-05-23T02:59:54.981Z,99.90
2023-05-23T03:02:22.401Z,99.90
2023-05-23T03:04:51.114Z,99.90
2023-05-23T03:07:27.446Z,99.90
2023-05-23T03:09:56.704Z,99.90
2023-05-23T03:12:24.446Z,99.90
2023-05-23T03:14:51.619Z,99.90
2023-05-23T03:17:19.186Z,99.90
2023-05-23T03:19:46.474Z,99.90
2023-05-23T03:22:13.949Z,99.90
2023-05-23T03:24:43.158Z,99.90
2023-05-23T03:27:11.890Z,99.90
2023-05-23T03:29:39.208Z,99.90
2023-05-23T03:32:07.140Z,99.90
2023-05-23T03:34:36.677Z,99.90
2023-05-23T03:37:04.543Z,99.90
2023-05-23T03:39:31.747Z,99.90
2023-05-23T03:41:59.193Z,99.90
2023-05-23T03:44:26.579Z,99.90
2023-05-23T03:46:54.135Z,99.90
2023-05-23T03:49:21.507Z,99.90
2023-05-23T03:51:48.918Z,99.90
2023-05-23T03:54:18.232Z,99.90
2023-05-23T03:56:46.114Z,99.90
2023-05-23T03:59:13.299Z,99.90
2023-05-23T04:01:41.393Z,99.90
2023-05-23T04:04:09.303Z,99.90
2023-05-23T04:06:38.539Z,99.90
2023-05-23T04:09:06.657Z,99.90
2023-05-23T04:11:39.025Z,99.90
2023-05-23T04:14:06.296Z,99.90
2023-05-23T04:16:36.349Z,99.90
2023-05-23T04:19:05.924Z,99.90
2023-05-23T04:21:34.447Z,99.90
2023-05-23T04:24:08.394Z,99.90
2023-05-23T04:26:36.627Z,99.90
2023-05-23T04:29:06.228Z,99.90
2023-05-23T04:31:34.378Z,99.90
2023-05-23T04:34:02.691Z,99.90
2023-05-23T04:36:31.481Z,99.90
2023-05-23T04:38:59.274Z,99.90
2023-05-23T04:41:28.379Z,99.90
2023-05-23T04:44:30.414Z,99.90
2023-05-23T04:47:28.666Z,99.90
2023-05-23T04:50:03.086Z,99.90
2023-05-23T04:52:34.106Z,99.90
2023-05-23T04:55:01.887Z,99.90
2023-05-23T04:57:29.538Z,99.90
2023-05-23T04:59:57.492Z,99.90
2023-05-23T05:02:27.208Z,99.90
2023-05-23T05:04:54.400Z,99.90
2023-05-23T05:07:22.376Z,99.90
2023-05-23T05:09:49.432Z,99.90
2023-05-23T05:12:17.761Z,99.90
2023-05-23T05:14:44.834Z,99.90
2023-05-23T05:17:13.001Z,99.90
2023-05-23T05:19:51.172Z,99.90
2023-05-23T05:22:18.628Z,99.90
2023-05-23T05:24:45.824Z,99.90
2023-05-23T05:27:13.216Z,99.90
2023-05-23T05:29:40.249Z,99.90
2023-05-23T05:32:09.177Z,99.90
2023-05-23T05:34:38.076Z,99.90
2023-05-23T05:37:07.011Z,99.90
2023-05-23T05:39:34.202Z,99.90
2023-05-23T05:42:03.781Z,99.90
2023-05-23T05:44:30.988Z,99.90
2023-05-23T05:46:58.816Z,99.90
2023-05-23T05:49:26.009Z,99.90
2023-05-23T05:51:53.486Z,99.90
2023-05-23T05:54:20.711Z,99.90
2023-05-23T05:56:48.483Z,99.90
2023-05-23T05:59:16.572Z,99.90
2023-05-23T06:01:45.018Z,99.90
2023-05-23T06:04:12.699Z,99.90
2023-05-23T06:06:40.901Z,99.90
2023-05-23T06:09:09.547Z,99.90
2023-05-23T06:11:41.134Z,99.90
2023-05-23T06:14:08.598Z,99.90
2023-05-23T06:16:39.211Z,99.90
2023-05-23T06:19:07.019Z,99.90
2023-05-23T06:21:34.766Z,99.90
2023-05-23T06:24:04.716Z,99.80
2023-05-23T06:26:33.575Z,99.90
2023-05-23T06:29:00.720Z,99.70
2023-05-23T06:31:28.044Z,99.40
2023-05-23T06:33:55.961Z,98.70
2023-05-23T06:36:23.090Z,98.20
2023-05-23T06:38:50.590Z,97.20
2023-05-23T06:41:17.731Z,96.40
2023-05-23T06:43:45.566Z,96.20
2023-05-23T06:46:15.061Z,96.40
2023-05-23T06:48:42.754Z,95.70
2023-05-23T06:51:11.235Z,95.40
2023-05-23T06:53:38.994Z,95.10
2023-05-23T06:56:06.497Z,93.70
2023-05-23T06:58:41.282Z,93.10
2023-05-23T07:01:08.631Z,93.10
2023-05-23T07:03:41.741Z,93.20
2023-05-23T07:06:09.399Z,93.00
2023-05-23T07:08:38.102Z,92.40
2023-05-23T07:11:06.540Z,91.00
2023-05-23T07:13:39.112Z,90.90
2023-05-23T07:16:06.385Z,88.40
2023-05-23T07:18:38.421Z,85.20
2023-05-23T07:21:06.142Z,85.40
2023-05-23T07:23:36.733Z,85.60
2023-05-23T07:26:04.986Z,84.10
2023-05-23T07:28:41.541Z,83.70
2023-05-23T07:31:09.529Z,80.90
2023-05-23T07:33:38.392Z,80.20
2023-05-23T07:36:06.750Z,79.90
2023-05-23T07:38:34.172Z,78.10
2023-05-23T07:41:10.878Z,77.90
2023-05-23T07:43:39.743Z,74.70
2023-05-23T07:46:07.370Z,72.30
2023-05-23T07:48:34.874Z,70.90
2023-05-23T07:51:02.090Z,70.70
2023-05-23T07:53:29.678Z,70.20
2023-05-23T07:55:58.164Z,69.50
2023-05-23T07:58:28.974Z,69.00
2023-05-23T08:00:56.107Z,68.20
2023-05-23T08:03:49.023Z,66.80
2023-05-23T08:06:22.124Z,63.70
2023-05-23T08:08:49.595Z,63.80
2023-05-23T08:11:16.776Z,64.30
2023-05-23T08:13:49.718Z,64.20
2023-05-23T08:16:36.428Z,62.80
2023-05-23T08:19:06.240Z,62.40
2023-05-23T08:21:36.367Z,62.60
2023-05-23T08:24:04.180Z,62.50
2023-05-23T08:26:35.049Z,61.80
2023-05-23T08:29:04.833Z,60.60
2023-05-23T08:31:35.056Z,60.30
2023-05-23T08:34:04.598Z,59.90
2023-05-23T08:36:36.420Z,59.40
2023-05-23T08:39:05.041Z,59.00
2023-05-23T08:41:36.810Z,58.50
2023-05-23T08:44:09.568Z,57.70
2023-05-23T08:46:46.345Z,57.10
2023-05-23T08:49:23.072Z,57.70
2023-05-23T08:51:55.894Z,57.60
2023-05-23T08:54:23.548Z,56.00
2023-05-23T08:56:52.280Z,54.80
2023-05-23T08:59:21.049Z,54.80
2023-05-23T09:01:50.544Z,53.70
2023-05-23T09:04:18.037Z,52.70
2023-05-23T09:07:02.403Z,53.30
2023-05-23T09:09:31.073Z,53.70
2023-05-23T09:12:01.039Z,54.10
2023-05-23T09:14:33.137Z,53.00
2023-05-23T09:17:05.624Z,53.40
2023-05-23T09:19:34.058Z,53.80
2023-05-23T09:22:14.451Z,52.60
2023-05-23T09:24:57.671Z,52.10
2023-05-23T09:27:25.007Z,52.60
2023-05-23T09:29:52.802Z,51.80
2023-05-23T09:32:21.604Z,50.80
2023-05-23T09:34:57.399Z,51.20
2023-05-23T09:37:31.452Z,50.50
2023-05-23T09:40:06.546Z,50.60
2023-05-23T09:42:34.386Z,50.60
2023-05-23T09:45:04.415Z,51.10
2023-05-23T09:47:32.420Z,50.70
2023-05-23T09:49:59.877Z,46.90
2023-05-23T09:52:27.573Z,48.40
2023-05-23T09:54:55.847Z,47.40
2023-05-23T09:57:23.814Z,48.00
2023-05-23T09:59:56.729Z,49.30
2023-05-23T10:03:02.413Z,49.40
2023-05-23T10:05:48.788Z,48.80
2023-05-23T10:08:40.211Z,47.00
2023-05-23T10:11:13.665Z,46.30
2023-05-23T10:13:47.182Z,46.40
2023-05-23T10:16:26.881Z,46.30
2023-05-23T10:18:58.234Z,46.30
2023-05-23T10:21:33.179Z,46.80
2023-05-23T10:24:01.192Z,46.30
2023-05-23T10:26:28.613Z,47.30
2023-05-23T10:28:57.594Z,47.20
2023-05-23T10:31:25.383Z,46.20
2023-05-23T10:34:04.440Z,46.40
2023-05-23T10:36:48.775Z,44.10
2023-05-23T10:39:34.376Z,42.90
2023-05-23T10:42:28.310Z,41.90
2023-05-23T10:45:15.449Z,42.10
2023-05-23T10:47:42.971Z,42.60
2023-05-23T10:50:14.984Z,43.70
2023-05-23T10:52:43.041Z,42.60
2023-05-23T10:55:15.289Z,43.60
2023-05-23T10:57:43.934Z,43.20
2023-05-23T11:00:16.240Z,43.00
2023-05-23T11:02:56.870Z,43.20
2023-05-23T11:05:28.319Z,43.70
2023-05-23T11:08:13.765Z,43.70
2023-05-23T11:10:53.619Z,44.20
2023-05-23T11:13:22.505Z,43.80
2023-05-23T11:15:49.976Z,44.70
2023-05-23T11:18:27.045Z,45.00
2023-05-23T11:20:55.165Z,45.60
2023-05-23T11:23:24.224Z,44.70
2023-05-23T11:25:53.478Z,44.50
2023-05-23T11:28:21.080Z,43.90
2023-05-23T11:30:49.705Z,43.50
2023-05-23T11:33:18.471Z,43.70
2023-05-23T11:35:49.900Z,44.20
2023-05-23T11:38:18.252Z,44.10
2023-05-23T11:40:46.669Z,43.90
2023-05-23T11:43:16.598Z,44.60
2023-05-23T11:45:44.236Z,44.60
2023-05-23T11:48:13.389Z,44.60
2023-05-23T11:50:50.293Z,43.90
2023-05-23T11:53:21.047Z,43.70
2023-05-23T11:55:55.939Z,43.10
2023-05-23T11:58:27.748Z,43.60
2023-05-23T12:01:03.857Z,43.90
2023-05-23T12:03:32.036Z,42.90
2023-05-23T12:05:59.490Z,43.10
2023-05-23T12:08:26.906Z,43.20
2023-05-23T12:10:58.500Z,43.20
2023-05-23T12:13:28.095Z,42.90
2023-05-23T12:15:56.748Z,42.60
2023-05-23T12:18:27.696Z,43.10
2023-05-23T12:20:54.923Z,43.50
2023-05-23T12:23:23.515Z,43.70
2023-05-23T12:25:55.208Z,43.20
2023-05-23T12:28:36.316Z,42.80
2023-05-23T12:31:22.152Z,42.90
2023-05-23T12:33:52.859Z,43.50
2023-05-23T12:36:25.365Z,43.70
2023-05-23T12:38:53.303Z,44.40
2023-05-23T12:41:22.147Z,42.70
2023-05-23T12:43:52.392Z,43.00
2023-05-23T12:46:23.986Z,42.60
2023-05-23T12:48:52.833Z,42.10
2023-05-23T12:51:21.127Z,42.20
2023-05-23T12:53:48.592Z,42.60
2023-05-23T12:56:15.679Z,42.10
2023-05-23T12:58:43.860Z,40.50
2023-05-23T13:01:11.320Z,42.00
2023-05-23T13:03:39.009Z,41.00
2023-05-23T13:06:06.890Z,41.00
2023-05-23T13:08:34.314Z,40.10
2023-05-23T13:11:01.450Z,40.20
2023-05-23T13:13:28.973Z,39.70
2023-05-23T13:15:56.704Z,38.80
2023-05-23T13:18:24.347Z,39.00
2023-05-23T13:20:51.565Z,37.30
2023-05-23T13:23:18.982Z,37.00
2023-05-23T13:25:46.671Z,36.90
2023-05-23T13:28:14.161Z,36.70
2023-05-23T13:30:42.353Z,36.60
2023-05-23T13:33:11.672Z,35.80
2023-05-23T13:35:38.986Z,36.40
2023-05-23T13:38:06.501Z,35.80
2023-05-23T13:40:33.672Z,35.60
2023-05-23T13:43:01.339Z,35.80
2023-05-23T13:45:28.438Z,36.00
2023-05-23T13:47:55.932Z,36.00
2023-05-23T13:50:23.696Z,36.10
2023-05-23T13:52:51.258Z,36.00
2023-05-23T13:55:18.981Z,36.10
2023-05-23T13:57:46.659Z,35.90
2023-05-23T14:00:14.587Z,35.60
2023-05-23T14:02:42.278Z,36.10
2023-05-23T14:05:09.849Z,36.30
2023-05-23T14:07:38.339Z,36.40
2023-05-23T14:10:07.148Z,37.20
2023-05-23T14:12:34.752Z,37.80
2023-05-23T14:15:01.932Z,38.20
2023-05-23T14:17:29.354Z,38.60
2023-05-23T14:19:56.461Z,38.80
2023-05-23T14:22:24.077Z,39.10
2023-05-23T14:24:51.288Z,39.20
2023-05-23T14:27:19.078Z,39.60
2023-05-23T14:29:47.451Z,40.00
2023-05-23T14:32:14.958Z,40.70
2023-05-23T14:34:42.085Z,40.40
2023-05-23T14:37:09.522Z,40.50
2023-05-23T14:39:36.728Z,40.70
2023-05-23T14:42:04.708Z,40.80
2023-05-23T14:44:31.891Z,40.90
2023-05-23T14:46:59.258Z,41.30
2023-05-23T14:49:26.345Z,41.00
2023-05-23T14:51:53.745Z,41.00
2023-05-23T14:54:20.910Z,41.50
2023-05-23T14:56:49.897Z,41.50
2023-05-23T14:59:18.413Z,42.20
2023-05-23T15:01:46.944Z,41.30
2023-05-23T15:04:14.268Z,41.30
2023-05-23T15:06:42.031Z,41.20
2023-05-23T15:09:10.644Z,40.30
2023-05-23T15:11:39.042Z,40.00
2023-05-23T15:14:06.519Z,39.90
2023-05-23T15:16:36.827Z,39.30
2023-05-23T15:19:05.757Z,39.10
2023-05-23T15:21:33.259Z,39.30
2023-05-23T15:24:00.479Z,39.00
2023-05-23T15:26:28.253Z,39.90
2023-05-23T15:28:55.687Z,39.60
2023-05-23T15:31:23.737Z,39.30
2023-05-23T15:33:51.040Z,38.90
2023-05-23T15:36:18.671Z,38.70
2023-05-23T15:38:46.107Z,39.40
2023-05-23T15:41:13.485Z,39.00
2023-05-23T15:43:40.778Z,39.30
2023-05-23T15:46:08.174Z,39.70
2023-05-23T15:48:35.205Z,39.70
2023-05-23T15:51:02.598Z,40.10
2023-05-23T15:53:34.385Z,40.60
2023-05-23T15:56:04.878Z,41.10
2023-05-23T15:58:32.428Z,41.30
2023-05-23T16:00:59.927Z,41.40
2023-05-23T16:03:27.033Z,41.60
2023-05-23T16:05:54.759Z,42.10
2023-05-23T16:08:21.803Z,41.80
2023-05-23T16:10:49.166Z,42.10
2023-05-23T16:13:17.950Z,42.10
2023-05-23T16:15:45.662Z,42.10
2023-05-23T16:18:14.315Z,41.90
2023-05-23T16:20:42.050Z,42.50
2023-05-23T16:23:09.178Z,42.60
2023-05-23T16:25:36.581Z,42.20
2023-05-23T16:28:03.610Z,41.90
2023-05-23T16:30:31.490Z,41.80
2023-05-23T16:32:58.570Z,41.80
2023-05-23T16:35:26.039Z,42.00
2023-05-23T16:37:53.234Z,42.10
2023-05-23T16:40:20.622Z,42.30
2023-05-23T16:42:47.719Z,42.70
2023-05-23T16:45:15.087Z,42.70
2023-05-23T16:47:42.193Z,43.10
2023-05-23T16:50:10.006Z,43.50
2023-05-23T16:52:37.338Z,43.60
2023-05-23T16:55:05.022Z,43.80
2023-05-23T16:57:32.168Z,43.60
2023-05-23T16:59:59.614Z,43.40
2023-05-23T17:02:26.869Z,43.40
2023-05-23T17:04:55.738Z,44.00
2023-05-23T17:07:22.813Z,43.80
2023-05-23T17:09:50.267Z,44.10
2023-05-23T17:12:17.393Z,44.20
2023-05-23T17:14:44.755Z,44.20
2023-05-23T17:17:11.802Z,44.00
2023-05-23T17:19:39.311Z,44.40
2023-05-23T17:22:07.783Z,44.50
2023-05-23T17:24:36.612Z,44.10
2023-05-23T17:27:04.195Z,43.90
2023-05-23T17:29:31.781Z,43.90
2023-05-23T17:31:59.067Z,43.90
2023-05-23T17:34:26.540Z,43.40
2023-05-23T17:36:53.595Z,43.30
2023-05-23T17:39:21.099Z,43.30
2023-05-23T17:41:48.230Z,43.50
2023-05-23T17:44:15.789Z,44.10
2023-05-23T17:46:44.270Z,44.40
2023-05-23T17:49:11.871Z,44.90
2023-05-23T17:51:38.947Z,45.20
2023-05-23T17:54:06.347Z,45.30
2023-05-23T17:56:33.525Z,45.50
2023-05-23T17:59:05.384Z,45.80
2023-05-23T18:01:32.997Z,46.20
2023-05-23T18:04:01.372Z,46.40
2023-05-23T18:06:28.597Z,47.40
2023-05-23T18:08:55.987Z,47.00
2023-05-23T18:11:24.192Z,47.40
2023-05-23T18:13:51.630Z,48.40
2023-05-23T18:16:18.721Z,48.20
2023-05-23T18:18:46.105Z,48.70
2023-05-23T18:21:15.003Z,49.00
2023-05-23T18:23:43.291Z,49.40
2023-05-23T18:26:10.376Z,49.70
2023-05-23T18:28:37.738Z,50.00
2023-05-23T18:31:04.989Z,50.40
2023-05-23T18:33:32.631Z,50.60
2023-05-23T18:35:59.817Z,51.00
2023-05-23T18:38:27.385Z,51.30
2023-05-23T18:40:54.445Z,51.60
2023-05-23T18:43:22.403Z,51.90
2023-05-23T18:45:49.436Z,52.90
2023-05-23T18:48:16.915Z,52.50
2023-05-23T18:50:44.328Z,52.60
2023-05-23T18:53:12.065Z,53.20
2023-05-23T18:55:39.088Z,53.50
2023-05-23T18:58:06.490Z,53.90
2023-05-23T19:00:33.538Z,54.30
2023-05-23T19:03:01.170Z,54.60
2023-05-23T19:05:29.407Z,54.90
2023-05-23T19:07:57.234Z,55.80
2023-05-23T19:10:24.509Z,56.10
2023-05-23T19:12:52.021Z,55.90
2023-05-23T19:15:19.542Z,56.20
2023-05-23T19:17:47.532Z,56.40
2023-05-23T19:20:18.456Z,56.70
2023-05-23T19:22:51.907Z,57.00
2023-05-23T19:25:20.834Z,57.20
2023-05-23T19:27:48.338Z,57.40
2023-05-23T19:30:15.580Z,57.50
2023-05-23T19:32:42.955Z,57.90
2023-05-23T19:35:10.220Z,58.10
2023-05-23T19:37:37.707Z,58.30
2023-05-23T19:40:06.007Z,58.60
2023-05-23T19:42:33.544Z,58.80
2023-05-23T19:45:00.595Z,59.60
2023-05-23T19:47:30.173Z,59.30
2023-05-23T19:49:58.046Z,59.50
2023-05-23T19:52:26.009Z,59.70
2023-05-23T19:54:53.158Z,59.90
2023-05-23T19:57:20.813Z,60.10
2023-05-23T19:59:47.941Z,60.20
2023-05-23T20:02:15.436Z,60.50
2023-05-23T20:04:42.542Z,60.60
2023-05-23T20:07:10.053Z,61.00
2023-05-23T20:09:37.472Z,61.10
2023-05-23T20:12:05.145Z,61.30
2023-05-23T20:14:33.028Z,61.40
2023-05-23T20:17:00.579Z,61.70
2023-05-23T20:19:27.701Z,61.90
2023-05-23T20:21:55.342Z,62.20
2023-05-23T20:24:22.621Z,62.30
2023-05-23T20:26:50.147Z,62.50
2023-05-23T20:29:17.269Z,62.70
2023-05-23T20:31:44.672Z,62.90
2023-05-23T20:34:12.128Z,63.10
2023-05-23T20:36:40.485Z,63.20
2023-05-23T20:39:07.957Z,63.40
2023-05-23T20:41:35.285Z,63.50
2023-05-23T20:44:02.423Z,63.70
2023-05-23T20:46:29.737Z,63.70
2023-05-23T20:48:57.509Z,63.90
2023-05-23T20:51:25.044Z,63.90
2023-05-23T20:53:53.139Z,64.10
2023-05-23T20:56:21.074Z,64.20
2023-05-23T20:58:48.351Z,64.20
2023-05-23T21:01:15.964Z,64.20
2023-05-23T21:03:43.203Z,64.20
2023-05-23T21:06:10.544Z,64.30
2023-05-23T21:08:37.707Z,64.40
2023-05-23T21:11:05.113Z,64.40
2023-05-23T21:13:32.204Z,64.50
2023-05-23T21:15:59.840Z,64.60
2023-05-23T21:18:26.953Z,64.70
2023-05-23T21:20:54.607Z,64.80
2023-05-23T21:23:21.775Z,64.90
2023-05-23T21:25:49.143Z,65.10
2023-05-23T21:28:16.204Z,65.20
2023-05-23T21:30:44.367Z,65.40
2023-05-23T21:33:11.793Z,65.50
2023-05-23T21:35:39.247Z,65.70
2023-05-23T21:38:06.332Z,65.90
2023-05-23T21:40:33.651Z,66.10
2023-05-23T21:43:01.137Z,66.30
2023-05-23T21:45:28.443Z,66.50
2023-05-23T21:47:55.625Z,66.90
2023-05-23T21:50:23.193Z,67.70
2023-05-23T21:52:50.304Z,67.30
2023-05-23T21:55:17.765Z,67.50
2023-05-23T21:57:44.912Z,67.60
2023-05-23T22:00:13.102Z,67.80
2023-05-23T22:02:40.888Z,68.10
2023-05-23T22:05:08.899Z,68.40
2023-05-23T22:07:36.037Z,68.60
2023-05-23T22:10:03.915Z,68.90
2023-05-23T22:12:32.280Z,69.00
2023-05-23T22:14:59.693Z,69.30
2023-05-23T22:17:26.857Z,69.60
2023-05-23T22:19:55.892Z,69.80
2023-05-23T22:22:23.190Z,70.00
2023-05-23T22:24:51.838Z,70.30
2023-05-23T22:27:18.991Z,70.50
2023-05-23T22:29:46.356Z,70.90
2023-05-23T22:32:13.481Z,71.10
2023-05-23T22:34:40.866Z,71.40
2023-05-23T22:37:08.002Z,71.80
2023-05-23T22:39:35.348Z,72.10
2023-05-23T22:42:03.510Z,72.30
2023-05-23T22:44:31.407Z,72.70
2023-05-23T22:46:59.870Z,72.90
2023-05-23T22:49:30.136Z,73.30
2023-05-23T22:51:57.792Z,73.60
2023-05-23T22:54:25.177Z,74.00
2023-05-23T22:56:52.885Z,75.00
2023-05-23T22:59:20.530Z,74.80
2023-05-23T23:01:47.708Z,75.00
2023-05-23T23:04:15.173Z,75.40
2023-05-23T23:06:43.311Z,75.70
2023-05-23T23:09:11.013Z,76.00
2023-05-23T23:11:38.282Z,76.20
2023-05-23T23:14:05.583Z,76.40
2023-05-23T23:16:32.644Z,76.70
2023-05-23T23:19:00.067Z,77.00
2023-05-23T23:21:27.162Z,77.30
2023-05-23T23:23:54.533Z,77.50
2023-05-23T23:26:21.723Z,77.90
2023-05-23T23:28:49.090Z,78.20
2023-05-23T23:31:16.432Z,78.60
2023-05-23T23:33:43.878Z,78.90
2023-05-23T23:36:11.072Z,79.00
2023-05-23T23:38:38.545Z,79.80
2023-05-23T23:41:05.664Z,79.60
2023-05-23T23:43:33.066Z,80.50
2023-05-23T23:46:00.429Z,80.40
2023-05-23T23:48:27.781Z,80.60
2023-05-23T23:50:54.899Z,81.50
2023-05-23T23:53:22.492Z,81.50
2023-05-23T23:55:49.798Z,81.70
2023-05-23T23:58:17.370Z,82.10
